sensor_id;sensor_type;location;lat;lon;timestamp;P1;durP1;ratioP1;P2;durP2;ratioP2
22904;SDS011;11619;50.140;8.518;2022-12-18T00:01:37;43.63;;;25.35;;
22904;SDS011;11619;50.140;8.518;2022-12-18T00:04:04;43.92;;;25.08;;
22904;SDS011;11619;50.140;8.518;2022-12-18T00:06:32;37.88;;;23.15;;
22904;SDS011;11619;50.140;8.518;2022-12-18T00:08:59;39.60;;;24.23;;
22904;SDS011;11619;50.140;8.518;2022-12-18T00:11:27;41.53;;;24.90;;
22904;SDS011;11619;50.140;8.518;2022-12-18T00:13:56;39.28;;;24.02;;
22904;SDS011;11619;50.140;8.518;2022-12-18T00:16:23;39.20;;;23.05;;
22904;SDS011;11619;50.140;8.518;2022-12-18T00:18:52;39.55;;;23.60;;
22904;SDS011;11619;50.140;8.518;2022-12-18T00:21:20;32.55;;;21.48;;
22904;SDS011;11619;50.140;8.518;2022-12-18T00:23:47;39.83;;;22.75;;
22904;SDS011;11619;50.140;8.518;2022-12-18T00:26:15;35.13;;;22.20;;
22904;SDS011;11619;50.140;8.518;2022-12-18T00:28:47;36.75;;;22.65;;
22904;SDS011;11619;50.140;8.518;2022-12-18T00:31:14;35.72;;;21.88;;
22904;SDS011;11619;50.140;8.518;2022-12-18T00:33:43;36.70;;;21.52;;
22904;SDS011;11619;50.140;8.518;2022-12-18T00:36:11;32.83;;;20.05;;
22904;SDS011;11619;50.140;8.518;2022-12-18T00:38:42;35.95;;;21.20;;
22904;SDS011;11619;50.140;8.518;2022-12-18T00:41:08;37.92;;;22.98;;
22904;SDS011;11619;50.140;8.518;2022-12-18T00:43:36;42.88;;;23.17;;
22904;SDS011;11619;50.140;8.518;2022-12-18T00:46:04;41.17;;;24.20;;
22904;SDS011;11619;50.140;8.518;2022-12-18T00:48:31;37.38;;;23.10;;
22904;SDS011;11619;50.140;8.518;2022-12-18T00:50:58;40.03;;;23.88;;
22904;SDS011;11619;50.140;8.518;2022-12-18T00:53:24;38.35;;;22.48;;
22904;SDS011;11619;50.140;8.518;2022-12-18T00:55:50;41.28;;;24.10;;
22904;SDS011;11619;50.140;8.518;2022-12-18T00:58:17;41.50;;;21.98;;
22904;SDS011;11619;50.140;8.518;2022-12-18T01:00:43;35.13;;;21.20;;
22904;SDS011;11619;50.140;8.518;2022-12-18T01:03:11;39.70;;;22.63;;
22904;SDS011;11619;50.140;8.518;2022-12-18T01:05:40;43.22;;;23.80;;
22904;SDS011;11619;50.140;8.518;2022-12-18T01:08:07;39.83;;;21.85;;
22904;SDS011;11619;50.140;8.518;2022-12-18T01:10:33;43.10;;;22.25;;
22904;SDS011;11619;50.140;8.518;2022-12-18T01:13:00;36.03;;;20.70;;
22904;SDS011;11619;50.140;8.518;2022-12-18T01:15:26;42.53;;;23.13;;
22904;SDS011;11619;50.140;8.518;2022-12-18T01:17:52;37.83;;;22.25;;
22904;SDS011;11619;50.140;8.518;2022-12-18T01:20:20;40.33;;;23.15;;
22904;SDS011;11619;50.140;8.518;2022-12-18T01:22:46;36.00;;;20.05;;
22904;SDS011;11619;50.140;8.518;2022-12-18T01:25:12;37.65;;;20.90;;
22904;SDS011;11619;50.140;8.518;2022-12-18T01:27:39;37.97;;;21.75;;
22904;SDS011;11619;50.140;8.518;2022-12-18T01:30:05;33.72;;;19.90;;
22904;SDS011;11619;50.140;8.518;2022-12-18T01:32:32;33.05;;;20.85;;
22904;SDS011;11619;50.140;8.518;2022-12-18T01:34:59;36.22;;;20.17;;
22904;SDS011;11619;50.140;8.518;2022-12-18T01:37:25;36.00;;;21.00;;
22904;SDS011;11619;50.140;8.518;2022-12-18T01:39:52;32.55;;;18.98;;
22904;SDS011;11619;50.140;8.518;2022-12-18T01:42:20;37.10;;;19.63;;
22904;SDS011;11619;50.140;8.518;2022-12-18T01:44:58;36.95;;;20.48;;
22904;SDS011;11619;50.140;8.518;2022-12-18T01:50:11;36.00;;;20.58;;
22904;SDS011;11619;50.140;8.518;2022-12-18T01:53:03;35.78;;;20.73;;
22904;SDS011;11619;50.140;8.518;2022-12-18T01:55:31;35.03;;;20.88;;
22904;SDS011;11619;50.140;8.518;2022-12-18T01:58:01;40.88;;;20.80;;
22904;SDS011;11619;50.140;8.518;2022-12-18T02:00:28;34.28;;;19.85;;
22904;SDS011;11619;50.140;8.518;2022-12-18T02:02:55;40.67;;;21.90;;
22904;SDS011;11619;50.140;8.518;2022-12-18T02:05:28;31.38;;;18.58;;
22904;SDS011;11619;50.140;8.518;2022-12-18T02:08:06;37.40;;;19.75;;
22904;SDS011;11619;50.140;8.518;2022-12-18T02:10:40;37.85;;;21.08;;
22904;SDS011;11619;50.140;8.518;2022-12-18T02:19:00;36.70;;;19.80;;
22904;SDS011;11619;50.140;8.518;2022-12-18T02:21:35;33.33;;;18.08;;
22904;SDS011;11619;50.140;8.518;2022-12-18T02:26:46;30.75;;;17.48;;
22904;SDS011;11619;50.140;8.518;2022-12-18T02:29:22;31.38;;;19.30;;
22904;SDS011;11619;50.140;8.518;2022-12-18T02:31:53;33.53;;;19.05;;
22904;SDS011;11619;50.140;8.518;2022-12-18T02:34:23;35.00;;;19.63;;
22904;SDS011;11619;50.140;8.518;2022-12-18T02:36:54;33.10;;;19.20;;
22904;SDS011;11619;50.140;8.518;2022-12-18T02:39:22;30.48;;;17.98;;
22904;SDS011;11619;50.140;8.518;2022-12-18T02:41:50;30.27;;;18.73;;
22904;SDS011;11619;50.140;8.518;2022-12-18T02:44:16;30.50;;;17.90;;
22904;SDS011;11619;50.140;8.518;2022-12-18T02:46:44;33.40;;;18.67;;
22904;SDS011;11619;50.140;8.518;2022-12-18T02:52:08;28.10;;;18.23;;
22904;SDS011;11619;50.140;8.518;2022-12-18T02:54:57;33.88;;;18.25;;
22904;SDS011;11619;50.140;8.518;2022-12-18T02:57:36;31.83;;;19.42;;
22904;SDS011;11619;50.140;8.518;2022-12-18T03:00:10;32.38;;;18.33;;
22904;SDS011;11619;50.140;8.518;2022-12-18T03:02:47;28.27;;;17.63;;
22904;SDS011;11619;50.140;8.518;2022-12-18T03:05:18;32.03;;;18.88;;
22904;SDS011;11619;50.140;8.518;2022-12-18T03:08:00;28.00;;;18.15;;
22904;SDS011;11619;50.140;8.518;2022-12-18T03:10:31;32.08;;;18.23;;
22904;SDS011;11619;50.140;8.518;2022-12-18T03:13:08;29.65;;;18.25;;
22904;SDS011;11619;50.140;8.518;2022-12-18T03:15:37;31.23;;;16.80;;
22904;SDS011;11619;50.140;8.518;2022-12-18T03:18:15;28.20;;;16.92;;
22904;SDS011;11619;50.140;8.518;2022-12-18T03:20:44;30.88;;;17.08;;
22904;SDS011;11619;50.140;8.518;2022-12-18T03:23:14;31.10;;;18.58;;
22904;SDS011;11619;50.140;8.518;2022-12-18T03:25:42;31.75;;;17.88;;
22904;SDS011;11619;50.140;8.518;2022-12-18T03:28:12;29.73;;;17.38;;
22904;SDS011;11619;50.140;8.518;2022-12-18T03:30:40;26.65;;;16.95;;
22904;SDS011;11619;50.140;8.518;2022-12-18T03:33:09;30.48;;;18.85;;
22904;SDS011;11619;50.140;8.518;2022-12-18T03:35:39;29.98;;;18.08;;
22904;SDS011;11619;50.140;8.518;2022-12-18T03:38:06;31.13;;;18.80;;
22904;SDS011;11619;50.140;8.518;2022-12-18T03:40:41;28.05;;;17.50;;
22904;SDS011;11619;50.140;8.518;2022-12-18T03:43:16;31.05;;;17.73;;
22904;SDS011;11619;50.140;8.518;2022-12-18T03:46:23;30.20;;;18.00;;
22904;SDS011;11619;50.140;8.518;2022-12-18T03:49:01;29.17;;;18.02;;
22904;SDS011;11619;50.140;8.518;2022-12-18T03:51:39;29.10;;;17.45;;
22904;SDS011;11619;50.140;8.518;2022-12-18T03:54:18;29.92;;;17.73;;
22904;SDS011;11619;50.140;8.518;2022-12-18T03:56:47;27.08;;;17.20;;
22904;SDS011;11619;50.140;8.518;2022-12-18T03:59:15;29.63;;;17.55;;
22904;SDS011;11619;50.140;8.518;2022-12-18T04:01:49;32.78;;;18.40;;
22904;SDS011;11619;50.140;8.518;2022-12-18T04:04:16;33.65;;;18.85;;
22904;SDS011;11619;50.140;8.518;2022-12-18T04:06:44;29.77;;;18.50;;
22904;SDS011;11619;50.140;8.518;2022-12-18T04:09:12;30.42;;;18.50;;
22904;SDS011;11619;50.140;8.518;2022-12-18T04:11:39;30.35;;;18.20;;
22904;SDS011;11619;50.140;8.518;2022-12-18T04:14:07;28.55;;;16.95;;
22904;SDS011;11619;50.140;8.518;2022-12-18T04:16:37;29.75;;;17.48;;
22904;SDS011;11619;50.140;8.518;2022-12-18T04:19:03;31.13;;;17.30;;
22904;SDS011;11619;50.140;8.518;2022-12-18T04:21:30;32.10;;;18.23;;
22904;SDS011;11619;50.140;8.518;2022-12-18T04:23:56;30.25;;;17.45;;
22904;SDS011;11619;50.140;8.518;2022-12-18T04:26:23;26.92;;;16.83;;
22904;SDS011;11619;50.140;8.518;2022-12-18T04:28:49;27.33;;;17.55;;
22904;SDS011;11619;50.140;8.518;2022-12-18T04:31:16;29.60;;;17.23;;
22904;SDS011;11619;50.140;8.518;2022-12-18T04:33:42;29.10;;;17.48;;
22904;SDS011;11619;50.140;8.518;2022-12-18T04:36:09;32.75;;;17.73;;
22904;SDS011;11619;50.140;8.518;2022-12-18T04:38:35;27.48;;;16.35;;
22904;SDS011;11619;50.140;8.518;2022-12-18T04:41:01;27.48;;;16.95;;
22904;SDS011;11619;50.140;8.518;2022-12-18T04:43:28;31.98;;;17.45;;
22904;SDS011;11619;50.140;8.518;2022-12-18T04:46:01;26.42;;;16.67;;
22904;SDS011;11619;50.140;8.518;2022-12-18T04:48:31;30.75;;;18.88;;
22904;SDS011;11619;50.140;8.518;2022-12-18T04:50:58;30.35;;;18.40;;
22904;SDS011;11619;50.140;8.518;2022-12-18T04:53:24;27.67;;;17.58;;
22904;SDS011;11619;50.140;8.518;2022-12-18T04:56:01;32.95;;;19.05;;
22904;SDS011;11619;50.140;8.518;2022-12-18T04:58:35;31.70;;;18.15;;
22904;SDS011;11619;50.140;8.518;2022-12-18T05:01:03;31.58;;;19.10;;
22904;SDS011;11619;50.140;8.518;2022-12-18T05:03:29;30.23;;;17.90;;
22904;SDS011;11619;50.140;8.518;2022-12-18T05:05:56;28.73;;;17.42;;
22904;SDS011;11619;50.140;8.518;2022-12-18T05:08:23;30.70;;;18.10;;
22904;SDS011;11619;50.140;8.518;2022-12-18T05:10:49;31.27;;;17.90;;
22904;SDS011;11619;50.140;8.518;2022-12-18T05:13:16;29.73;;;17.85;;
22904;SDS011;11619;50.140;8.518;2022-12-18T05:15:42;32.50;;;19.83;;
22904;SDS011;11619;50.140;8.518;2022-12-18T05:18:09;28.95;;;18.17;;
22904;SDS011;11619;50.140;8.518;2022-12-18T05:20:35;32.03;;;17.65;;
22904;SDS011;11619;50.140;8.518;2022-12-18T05:23:02;30.15;;;18.90;;
22904;SDS011;11619;50.140;8.518;2022-12-18T05:25:28;33.33;;;20.55;;
22904;SDS011;11619;50.140;8.518;2022-12-18T05:27:55;32.35;;;19.20;;
22904;SDS011;11619;50.140;8.518;2022-12-18T05:30:21;32.65;;;18.65;;
22904;SDS011;11619;50.140;8.518;2022-12-18T05:32:48;33.00;;;19.58;;
22904;SDS011;11619;50.140;8.518;2022-12-18T05:35:16;31.27;;;18.63;;
22904;SDS011;11619;50.140;8.518;2022-12-18T05:37:42;27.38;;;17.63;;
22904;SDS011;11619;50.140;8.518;2022-12-18T05:40:09;30.38;;;18.00;;
22904;SDS011;11619;50.140;8.518;2022-12-18T05:42:36;30.42;;;19.42;;
22904;SDS011;11619;50.140;8.518;2022-12-18T05:45:03;31.50;;;18.75;;
22904;SDS011;11619;50.140;8.518;2022-12-18T05:47:30;33.38;;;18.92;;
22904;SDS011;11619;50.140;8.518;2022-12-18T05:49:56;33.50;;;18.75;;
22904;SDS011;11619;50.140;8.518;2022-12-18T05:52:23;30.98;;;20.13;;
22904;SDS011;11619;50.140;8.518;2022-12-18T05:54:49;30.88;;;19.30;;
22904;SDS011;11619;50.140;8.518;2022-12-18T05:57:16;30.08;;;18.98;;
22904;SDS011;11619;50.140;8.518;2022-12-18T05:59:42;28.35;;;18.70;;
22904;SDS011;11619;50.140;8.518;2022-12-18T06:02:09;29.20;;;18.67;;
22904;SDS011;11619;50.140;8.518;2022-12-18T06:04:35;29.13;;;19.13;;
22904;SDS011;11619;50.140;8.518;2022-12-18T06:07:02;36.05;;;19.42;;
22904;SDS011;11619;50.140;8.518;2022-12-18T06:09:28;35.97;;;19.98;;
22904;SDS011;11619;50.140;8.518;2022-12-18T06:11:55;33.05;;;19.38;;
22904;SDS011;11619;50.140;8.518;2022-12-18T06:14:21;39.85;;;19.63;;
22904;SDS011;11619;50.140;8.518;2022-12-18T06:16:49;33.85;;;20.40;;
22904;SDS011;11619;50.140;8.518;2022-12-18T06:19:17;39.80;;;20.73;;
22904;SDS011;11619;50.140;8.518;2022-12-18T06:21:43;33.85;;;20.33;;
22904;SDS011;11619;50.140;8.518;2022-12-18T06:24:10;36.33;;;20.70;;
22904;SDS011;11619;50.140;8.518;2022-12-18T06:26:37;37.17;;;21.27;;
22904;SDS011;11619;50.140;8.518;2022-12-18T06:29:05;38.67;;;20.52;;
22904;SDS011;11619;50.140;8.518;2022-12-18T06:31:31;32.70;;;20.90;;
22904;SDS011;11619;50.140;8.518;2022-12-18T06:33:59;35.78;;;22.33;;
22904;SDS011;11619;50.140;8.518;2022-12-18T06:36:28;40.50;;;23.30;;
22904;SDS011;11619;50.140;8.518;2022-12-18T06:38:54;33.67;;;21.02;;
22904;SDS011;11619;50.140;8.518;2022-12-18T06:41:22;35.22;;;20.98;;
22904;SDS011;11619;50.140;8.518;2022-12-18T06:43:49;36.83;;;21.30;;
22904;SDS011;11619;50.140;8.518;2022-12-18T06:46:15;37.17;;;21.80;;
22904;SDS011;11619;50.140;8.518;2022-12-18T06:48:42;36.22;;;21.40;;
22904;SDS011;11619;50.140;8.518;2022-12-18T06:51:08;35.00;;;21.05;;
22904;SDS011;11619;50.140;8.518;2022-12-18T06:53:35;38.45;;;22.00;;
22904;SDS011;11619;50.140;8.518;2022-12-18T06:56:02;37.38;;;23.02;;
22904;SDS011;11619;50.140;8.518;2022-12-18T06:58:35;35.22;;;22.63;;
22904;SDS011;11619;50.140;8.518;2022-12-18T07:01:02;36.60;;;22.23;;
22904;SDS011;11619;50.140;8.518;2022-12-18T07:03:30;35.40;;;22.25;;
22904;SDS011;11619;50.140;8.518;2022-12-18T07:05:56;31.52;;;21.25;;
22904;SDS011;11619;50.140;8.518;2022-12-18T07:08:24;33.78;;;20.92;;
22904;SDS011;11619;50.140;8.518;2022-12-18T07:10:51;36.80;;;20.00;;
22904;SDS011;11619;50.140;8.518;2022-12-18T07:13:21;32.42;;;19.98;;
22904;SDS011;11619;50.140;8.518;2022-12-18T07:15:48;39.70;;;22.20;;
22904;SDS011;11619;50.140;8.518;2022-12-18T07:18:15;35.55;;;20.02;;
22904;SDS011;11619;50.140;8.518;2022-12-18T07:20:41;39.15;;;21.58;;
22904;SDS011;11619;50.140;8.518;2022-12-18T07:23:08;34.45;;;21.77;;
22904;SDS011;11619;50.140;8.518;2022-12-18T07:25:34;34.22;;;21.63;;
22904;SDS011;11619;50.140;8.518;2022-12-18T07:28:01;37.80;;;23.23;;
22904;SDS011;11619;50.140;8.518;2022-12-18T07:30:28;37.65;;;23.58;;
22904;SDS011;11619;50.140;8.518;2022-12-18T07:32:55;40.85;;;22.15;;
22904;SDS011;11619;50.140;8.518;2022-12-18T07:35:21;38.17;;;23.00;;
22904;SDS011;11619;50.140;8.518;2022-12-18T07:37:50;40.45;;;23.85;;
22904;SDS011;11619;50.140;8.518;2022-12-18T07:40:17;44.60;;;24.33;;
22904;SDS011;11619;50.140;8.518;2022-12-18T07:42:43;37.10;;;22.85;;
22904;SDS011;11619;50.140;8.518;2022-12-18T07:45:10;42.25;;;23.20;;
22904;SDS011;11619;50.140;8.518;2022-12-18T07:47:36;42.47;;;25.30;;
22904;SDS011;11619;50.140;8.518;2022-12-18T07:50:03;40.45;;;23.17;;
22904;SDS011;11619;50.140;8.518;2022-12-18T07:52:30;41.40;;;24.77;;
22904;SDS011;11619;50.140;8.518;2022-12-18T07:54:59;38.80;;;24.60;;
22904;SDS011;11619;50.140;8.518;2022-12-18T07:57:25;39.72;;;24.23;;
22904;SDS011;11619;50.140;8.518;2022-12-18T08:00:12;44.90;;;26.85;;
22904;SDS011;11619;50.140;8.518;2022-12-18T08:02:39;44.95;;;26.83;;
22904;SDS011;11619;50.140;8.518;2022-12-18T08:05:07;46.88;;;25.75;;
22904;SDS011;11619;50.140;8.518;2022-12-18T08:07:34;44.38;;;25.40;;
22904;SDS011;11619;50.140;8.518;2022-12-18T08:10:00;43.58;;;25.20;;
22904;SDS011;11619;50.140;8.518;2022-12-18T08:12:27;39.65;;;24.48;;
22904;SDS011;11619;50.140;8.518;2022-12-18T08:14:53;44.00;;;26.48;;
22904;SDS011;11619;50.140;8.518;2022-12-18T08:17:19;42.00;;;25.48;;
22904;SDS011;11619;50.140;8.518;2022-12-18T08:19:46;45.83;;;27.00;;
22904;SDS011;11619;50.140;8.518;2022-12-18T08:22:12;47.80;;;27.90;;
22904;SDS011;11619;50.140;8.518;2022-12-18T08:24:39;50.22;;;28.25;;
22904;SDS011;11619;50.140;8.518;2022-12-18T08:27:05;42.70;;;26.48;;
22904;SDS011;11619;50.140;8.518;2022-12-18T08:29:51;45.40;;;28.50;;
22904;SDS011;11619;50.140;8.518;2022-12-18T08:32:17;43.88;;;26.65;;
22904;SDS011;11619;50.140;8.518;2022-12-18T08:34:44;47.03;;;28.23;;
22904;SDS011;11619;50.140;8.518;2022-12-18T08:37:10;50.88;;;30.17;;
22904;SDS011;11619;50.140;8.518;2022-12-18T08:39:37;50.53;;;29.83;;
22904;SDS011;11619;50.140;8.518;2022-12-18T08:42:03;43.60;;;27.27;;
22904;SDS011;11619;50.140;8.518;2022-12-18T08:44:48;44.72;;;26.48;;
22904;SDS011;11619;50.140;8.518;2022-12-18T08:47:15;40.03;;;24.25;;
22904;SDS011;11619;50.140;8.518;2022-12-18T08:49:41;37.88;;;23.17;;
22904;SDS011;11619;50.140;8.518;2022-12-18T08:52:07;35.50;;;22.55;;
22904;SDS011;11619;50.140;8.518;2022-12-18T08:54:34;35.25;;;22.77;;
22904;SDS011;11619;50.140;8.518;2022-12-18T08:57:01;35.45;;;22.73;;
22904;SDS011;11619;50.140;8.518;2022-12-18T08:59:28;36.13;;;23.08;;
22904;SDS011;11619;50.140;8.518;2022-12-18T09:01:54;35.38;;;20.90;;
22904;SDS011;11619;50.140;8.518;2022-12-18T09:04:21;32.22;;;20.27;;
22904;SDS011;11619;50.140;8.518;2022-12-18T09:06:48;36.55;;;20.65;;
22904;SDS011;11619;50.140;8.518;2022-12-18T09:09:14;34.03;;;20.70;;
22904;SDS011;11619;50.140;8.518;2022-12-18T09:11:41;35.15;;;20.80;;
22904;SDS011;11619;50.140;8.518;2022-12-18T09:14:08;33.55;;;19.13;;
22904;SDS011;11619;50.140;8.518;2022-12-18T09:16:35;32.70;;;19.95;;
22904;SDS011;11619;50.140;8.518;2022-12-18T09:19:03;35.90;;;20.83;;
22904;SDS011;11619;50.140;8.518;2022-12-18T09:21:32;33.35;;;19.92;;
22904;SDS011;11619;50.140;8.518;2022-12-18T09:24:02;40.22;;;22.85;;
22904;SDS011;11619;50.140;8.518;2022-12-18T09:26:30;66.88;;;31.98;;
22904;SDS011;11619;50.140;8.518;2022-12-18T09:28:56;62.13;;;33.28;;
22904;SDS011;11619;50.140;8.518;2022-12-18T09:31:23;87.85;;;41.15;;
22904;SDS011;11619;50.140;8.518;2022-12-18T09:33:50;92.45;;;42.75;;
22904;SDS011;11619;50.140;8.518;2022-12-18T09:36:17;94.10;;;46.08;;
22904;SDS011;11619;50.140;8.518;2022-12-18T09:38:44;100.43;;;49.45;;
22904;SDS011;11619;50.140;8.518;2022-12-18T09:44:13;101.28;;;52.83;;
22904;SDS011;11619;50.140;8.518;2022-12-18T09:46:44;64.85;;;42.13;;
22904;SDS011;11619;50.140;8.518;2022-12-18T09:49:14;42.95;;;29.80;;
22904;SDS011;11619;50.140;8.518;2022-12-18T09:51:44;36.22;;;24.70;;
22904;SDS011;11619;50.140;8.518;2022-12-18T09:54:14;34.60;;;23.52;;
22904;SDS011;11619;50.140;8.518;2022-12-18T09:56:44;44.15;;;27.80;;
22904;SDS011;11619;50.140;8.518;2022-12-18T09:59:56;43.78;;;28.25;;
22904;SDS011;11619;50.140;8.518;2022-12-18T10:02:12;34.72;;;24.73;;
22904;SDS011;11619;50.140;8.518;2022-12-18T10:04:41;37.08;;;24.58;;
22904;SDS011;11619;50.140;8.518;2022-12-18T10:07:19;38.80;;;25.83;;
22904;SDS011;11619;50.140;8.518;2022-12-18T10:10:36;36.05;;;23.88;;
22904;SDS011;11619;50.140;8.518;2022-12-18T10:12:44;36.92;;;25.45;;
22904;SDS011;11619;50.140;8.518;2022-12-18T10:15:36;35.50;;;24.30;;
22904;SDS011;11619;50.140;8.518;2022-12-18T10:18:19;31.55;;;22.77;;
22904;SDS011;11619;50.140;8.518;2022-12-18T10:21:18;37.55;;;23.90;;
22904;SDS011;11619;50.140;8.518;2022-12-18T10:23:58;34.45;;;24.17;;
22904;SDS011;11619;50.140;8.518;2022-12-18T10:26:28;37.50;;;24.50;;
22904;SDS011;11619;50.140;8.518;2022-12-18T10:28:54;38.33;;;25.63;;
22904;SDS011;11619;50.140;8.518;2022-12-18T10:31:30;39.47;;;26.27;;
22904;SDS011;11619;50.140;8.518;2022-12-18T10:33:56;37.90;;;26.45;;
22904;SDS011;11619;50.140;8.518;2022-12-18T10:36:23;47.55;;;30.25;;
22904;SDS011;11619;50.140;8.518;2022-12-18T10:38:50;47.22;;;30.50;;
22904;SDS011;11619;50.140;8.518;2022-12-18T10:43:43;39.88;;;26.67;;
22904;SDS011;11619;50.140;8.518;2022-12-18T10:51:06;37.55;;;26.45;;
22904;SDS011;11619;50.140;8.518;2022-12-18T10:53:37;39.85;;;26.75;;
22904;SDS011;11619;50.140;8.518;2022-12-18T10:56:06;39.40;;;26.35;;
22904;SDS011;11619;50.140;8.518;2022-12-18T10:58:34;42.22;;;28.33;;
22904;SDS011;11619;50.140;8.518;2022-12-18T11:03:34;44.38;;;27.02;;
22904;SDS011;11619;50.140;8.518;2022-12-18T11:08:33;49.70;;;30.55;;
22904;SDS011;11619;50.140;8.518;2022-12-18T11:11:00;47.47;;;29.40;;
22904;SDS011;11619;50.140;8.518;2022-12-18T11:13:28;49.47;;;28.17;;
22904;SDS011;11619;50.140;8.518;2022-12-18T11:15:55;49.70;;;29.50;;
22904;SDS011;11619;50.140;8.518;2022-12-18T11:20:56;51.78;;;31.55;;
22904;SDS011;11619;50.140;8.518;2022-12-18T11:23:24;48.05;;;30.15;;
22904;SDS011;11619;50.140;8.518;2022-12-18T11:25:55;50.47;;;31.20;;
22904;SDS011;11619;50.140;8.518;2022-12-18T11:28:35;48.50;;;28.20;;
22904;SDS011;11619;50.140;8.518;2022-12-18T11:31:09;52.13;;;31.65;;
22904;SDS011;11619;50.140;8.518;2022-12-18T11:33:42;54.00;;;31.70;;
22904;SDS011;11619;50.140;8.518;2022-12-18T11:36:33;55.33;;;31.92;;
22904;SDS011;11619;50.140;8.518;2022-12-18T11:39:06;55.92;;;30.35;;
22904;SDS011;11619;50.140;8.518;2022-12-18T11:41:43;56.20;;;31.38;;
22904;SDS011;11619;50.140;8.518;2022-12-18T11:44:47;53.05;;;31.70;;
22904;SDS011;11619;50.140;8.518;2022-12-18T11:49:47;53.55;;;32.30;;
22904;SDS011;11619;50.140;8.518;2022-12-18T11:54:42;53.35;;;30.90;;
22904;SDS011;11619;50.140;8.518;2022-12-18T11:59:55;54.15;;;29.80;;
22904;SDS011;11619;50.140;8.518;2022-12-18T12:10:48;53.67;;;31.73;;
22904;SDS011;11619;50.140;8.518;2022-12-18T12:13:43;52.83;;;30.30;;
22904;SDS011;11619;50.140;8.518;2022-12-18T12:16:52;53.80;;;31.70;;
22904;SDS011;11619;50.140;8.518;2022-12-18T12:19:32;54.25;;;31.55;;
22904;SDS011;11619;50.140;8.518;2022-12-18T12:27:41;51.90;;;30.40;;
22904;SDS011;11619;50.140;8.518;2022-12-18T12:30:20;56.90;;;31.65;;
22904;SDS011;11619;50.140;8.518;2022-12-18T12:35:43;57.45;;;31.15;;
22904;SDS011;11619;50.140;8.518;2022-12-18T12:38:18;59.28;;;31.52;;
22904;SDS011;11619;50.140;8.518;2022-12-18T12:40:49;60.13;;;32.50;;
22904;SDS011;11619;50.140;8.518;2022-12-18T12:46:03;54.97;;;29.05;;
22904;SDS011;11619;50.140;8.518;2022-12-18T12:48:35;57.00;;;32.17;;
22904;SDS011;11619;50.140;8.518;2022-12-18T12:51:11;56.17;;;31.77;;
22904;SDS011;11619;50.140;8.518;2022-12-18T12:53:46;56.35;;;33.13;;
22904;SDS011;11619;50.140;8.518;2022-12-18T12:56:14;51.53;;;29.58;;
22904;SDS011;11619;50.140;8.518;2022-12-18T13:01:49;53.92;;;29.10;;
22904;SDS011;11619;50.140;8.518;2022-12-18T13:07:24;56.95;;;31.55;;
22904;SDS011;11619;50.140;8.518;2022-12-18T13:18:16;53.17;;;31.25;;
22904;SDS011;11619;50.140;8.518;2022-12-18T13:20:46;53.22;;;31.27;;
22904;SDS011;11619;50.140;8.518;2022-12-18T13:25:56;57.88;;;30.90;;
22904;SDS011;11619;50.140;8.518;2022-12-18T13:30:59;57.05;;;31.30;;
22904;SDS011;11619;50.140;8.518;2022-12-18T13:36:09;55.45;;;29.83;;
22904;SDS011;11619;50.140;8.518;2022-12-18T13:43:42;52.85;;;30.10;;
22904;SDS011;11619;50.140;8.518;2022-12-18T13:48:56;50.83;;;29.80;;
22904;SDS011;11619;50.140;8.518;2022-12-18T13:51:44;55.22;;;30.27;;
22904;SDS011;11619;50.140;8.518;2022-12-18T13:54:22;56.95;;;30.77;;
22904;SDS011;11619;50.140;8.518;2022-12-18T13:56:53;53.97;;;30.05;;
22904;SDS011;11619;50.140;8.518;2022-12-18T13:59:21;53.42;;;29.75;;
22904;SDS011;11619;50.140;8.518;2022-12-18T14:01:57;50.20;;;28.88;;
22904;SDS011;11619;50.140;8.518;2022-12-18T14:04:29;53.15;;;29.75;;
22904;SDS011;11619;50.140;8.518;2022-12-18T14:07:07;53.53;;;29.33;;
22904;SDS011;11619;50.140;8.518;2022-12-18T14:09:42;59.53;;;29.80;;
22904;SDS011;11619;50.140;8.518;2022-12-18T14:12:15;53.85;;;28.20;;
22904;SDS011;11619;50.140;8.518;2022-12-18T14:15:02;58.70;;;29.70;;
22904;SDS011;11619;50.140;8.518;2022-12-18T14:17:30;50.80;;;28.25;;
22904;SDS011;11619;50.140;8.518;2022-12-18T14:19:57;52.45;;;28.48;;
22904;SDS011;11619;50.140;8.518;2022-12-18T14:22:24;54.30;;;30.25;;
22904;SDS011;11619;50.140;8.518;2022-12-18T14:25:10;55.15;;;29.83;;
22904;SDS011;11619;50.140;8.518;2022-12-18T14:27:42;59.25;;;30.33;;
22904;SDS011;11619;50.140;8.518;2022-12-18T14:33:03;56.00;;;30.70;;
22904;SDS011;11619;50.140;8.518;2022-12-18T14:40:42;59.20;;;30.90;;
22904;SDS011;11619;50.140;8.518;2022-12-18T14:43:12;51.05;;;30.27;;
22904;SDS011;11619;50.140;8.518;2022-12-18T14:45:42;61.47;;;31.98;;
22904;SDS011;11619;50.140;8.518;2022-12-18T14:48:20;52.50;;;29.40;;
22904;SDS011;11619;50.140;8.518;2022-12-18T14:51:18;52.03;;;28.40;;
22904;SDS011;11619;50.140;8.518;2022-12-18T14:53:47;57.67;;;31.67;;
22904;SDS011;11619;50.140;8.518;2022-12-18T14:56:21;52.38;;;29.38;;
22904;SDS011;11619;50.140;8.518;2022-12-18T14:58:53;53.10;;;30.00;;
22904;SDS011;11619;50.140;8.518;2022-12-18T15:01:30;54.78;;;30.25;;
22904;SDS011;11619;50.140;8.518;2022-12-18T15:03:58;57.92;;;31.40;;
22904;SDS011;11619;50.140;8.518;2022-12-18T15:09:04;53.42;;;30.15;;
22904;SDS011;11619;50.140;8.518;2022-12-18T15:11:45;54.72;;;29.08;;
22904;SDS011;11619;50.140;8.518;2022-12-18T15:14:30;55.10;;;30.05;;
22904;SDS011;11619;50.140;8.518;2022-12-18T15:17:01;49.17;;;28.83;;
22904;SDS011;11619;50.140;8.518;2022-12-18T15:19:37;50.92;;;29.17;;
22904;SDS011;11619;50.140;8.518;2022-12-18T15:22:12;54.22;;;30.70;;
22904;SDS011;11619;50.140;8.518;2022-12-18T15:24:43;56.13;;;31.60;;
22904;SDS011;11619;50.140;8.518;2022-12-18T15:27:20;55.67;;;30.30;;
22904;SDS011;11619;50.140;8.518;2022-12-18T15:32:27;51.28;;;28.52;;
22904;SDS011;11619;50.140;8.518;2022-12-18T15:35:09;50.20;;;28.38;;
22904;SDS011;11619;50.140;8.518;2022-12-18T15:37:40;57.88;;;31.40;;
22904;SDS011;11619;50.140;8.518;2022-12-18T15:40:07;56.60;;;30.33;;
22904;SDS011;11619;50.140;8.518;2022-12-18T15:42:37;52.60;;;29.52;;
22904;SDS011;11619;50.140;8.518;2022-12-18T15:45:22;59.20;;;30.90;;
22904;SDS011;11619;50.140;8.518;2022-12-18T15:47:49;54.40;;;29.80;;
22904;SDS011;11619;50.140;8.518;2022-12-18T15:50:15;53.40;;;29.60;;
22904;SDS011;11619;50.140;8.518;2022-12-18T15:52:45;58.10;;;30.92;;
22904;SDS011;11619;50.140;8.518;2022-12-18T15:55:13;58.92;;;29.98;;
22904;SDS011;11619;50.140;8.518;2022-12-18T15:58:03;56.63;;;30.58;;
22904;SDS011;11619;50.140;8.518;2022-12-18T16:00:33;56.00;;;30.80;;
22904;SDS011;11619;50.140;8.518;2022-12-18T16:03:01;57.05;;;29.98;;
22904;SDS011;11619;50.140;8.518;2022-12-18T16:05:28;57.08;;;31.60;;
22904;SDS011;11619;50.140;8.518;2022-12-18T16:07:54;54.92;;;30.40;;
22904;SDS011;11619;50.140;8.518;2022-12-18T16:10:21;50.60;;;29.48;;
22904;SDS011;11619;50.140;8.518;2022-12-18T16:12:47;52.33;;;30.13;;
22904;SDS011;11619;50.140;8.518;2022-12-18T16:15:14;48.92;;;29.17;;
22904;SDS011;11619;50.140;8.518;2022-12-18T16:17:49;55.58;;;31.35;;
22904;SDS011;11619;50.140;8.518;2022-12-18T16:20:16;57.60;;;30.15;;
22904;SDS011;11619;50.140;8.518;2022-12-18T16:22:44;58.05;;;32.40;;